createdAt,value
2023-04-16T00:00:58.057Z,6.55
2023-04-16T00:03:24.942Z,5.32
2023-04-16T00:05:53.187Z,6.20
2023-04-16T00:08:19.908Z,5.73
2023-04-16T00:10:46.601Z,4.25
2023-04-16T00:13:13.222Z,4.63
2023-04-16T00:15:39.793Z,6.28
2023-04-16T00:18:06.457Z,6.18
2023-04-16T00:20:33.267Z,3.90
2023-04-16T00:23:02.432Z,4.20
2023-04-16T00:25:32.075Z,4.70
2023-04-16T00:27:59.770Z,8.25
2023-04-16T00:30:35.382Z,2.80
2023-04-16T00:33:03.160Z,3.67
2023-04-16T00:35:29.718Z,5.55
2023-04-16T00:37:56.391Z,6.32
2023-04-16T00:40:35.071Z,4.28
2023-04-16T00:43:02.726Z,5.35
2023-04-16T00:45:29.606Z,7.73
2023-04-16T00:47:59.271Z,6.88
2023-04-16T00:50:27.223Z,4.35
2023-04-16T00:52:53.926Z,5.78
2023-04-16T00:55:21.509Z,3.88
2023-04-16T00:57:51.975Z,6.30
2023-04-16T01:00:19.880Z,4.93
2023-04-16T01:02:46.673Z,3.53
2023-04-16T01:05:13.460Z,7.53
2023-04-16T01:07:40.111Z,6.95
2023-04-16T01:10:07.433Z,5.23
2023-04-16T01:12:34.031Z,5.07
2023-04-16T01:15:03.565Z,4.97
2023-04-16T01:17:30.406Z,7.47
2023-04-16T01:20:00.204Z,4.72
2023-04-16T01:22:31.862Z,8.60
2023-04-16T01:24:58.510Z,6.97
2023-04-16T01:27:28.148Z,5.53
2023-04-16T01:30:05.652Z,5.13
2023-04-16T01:32:32.675Z,5.60
2023-04-16T01:34:59.309Z,6.77
2023-04-16T01:37:25.935Z,9.32
2023-04-16T01:39:52.661Z,8.98
2023-04-16T01:42:19.298Z,7.63
2023-04-16T01:44:47.453Z,5.15
2023-04-16T01:47:16.901Z,7.27
2023-04-16T01:49:45.673Z,6.97
2023-04-16T01:52:12.428Z,6.78
2023-04-16T01:54:39.063Z,8.73
2023-04-16T01:57:05.712Z,10.68
2023-04-16T01:59:32.401Z,8.43
2023-04-16T02:02:25.583Z,9.40
2023-04-16T02:04:55.012Z,9.48
2023-04-16T02:07:21.760Z,6.72
2023-04-16T02:12:34.151Z,5.70
2023-04-16T02:15:00.803Z,8.25
2023-04-16T02:17:27.645Z,9.63
2023-04-16T02:22:44.178Z,7.38
2023-04-16T02:25:10.969Z,8.70
2023-04-16T02:27:37.623Z,9.50
2023-04-16T02:30:04.649Z,7.70
2023-04-16T02:32:40.511Z,8.50
2023-04-16T02:35:07.710Z,13.82
2023-04-16T02:37:36.454Z,10.33
2023-04-16T02:40:03.038Z,8.55
2023-04-16T02:42:35.362Z,7.97
2023-04-16T02:45:01.985Z,8.73
2023-04-16T02:47:28.634Z,8.95
2023-04-16T02:49:55.252Z,14.70
2023-04-16T02:52:21.917Z,9.13
2023-04-16T02:54:48.632Z,10.43
2023-04-16T02:57:15.484Z,9.63
2023-04-16T03:00:10.116Z,11.02
2023-04-16T03:02:36.877Z,10.13
2023-04-16T03:05:04.127Z,12.88
2023-04-16T03:07:30.797Z,12.45
2023-04-16T03:09:57.433Z,15.15
2023-04-16T03:12:24.093Z,12.45
2023-04-16T03:14:52.617Z,9.90
2023-04-16T03:17:21.625Z,11.10
2023-04-16T03:19:49.574Z,13.05
2023-04-16T03:22:25.558Z,14.65
2023-04-16T03:24:52.160Z,12.10
2023-04-16T03:27:18.819Z,11.13
2023-04-16T03:29:45.446Z,15.73
2023-04-16T03:32:13.876Z,16.65
2023-04-16T03:34:43.340Z,11.02
2023-04-16T03:37:12.121Z,9.80
2023-04-16T03:39:38.999Z,13.47
2023-04-16T03:42:05.636Z,14.50
2023-04-16T03:44:32.247Z,10.48
2023-04-16T03:46:59.062Z,11.35
2023-04-16T03:49:25.924Z,13.07
2023-04-16T03:51:55.071Z,12.67
2023-04-16T03:54:23.200Z,11.73
2023-04-16T03:56:54.754Z,14.38
2023-04-16T03:59:21.462Z,13.27
2023-04-16T04:01:50.138Z,13.90
2023-04-16T04:04:16.842Z,18.37
2023-04-16T04:06:49.061Z,20.08
2023-04-16T04:09:18.391Z,12.40
2023-04-16T04:11:45.013Z,12.60
2023-04-16T04:14:11.782Z,16.23
2023-04-16T04:16:42.111Z,14.00
2023-04-16T04:19:09.024Z,14.65
2023-04-16T04:21:35.890Z,11.93
2023-04-16T04:24:02.503Z,14.82
2023-04-16T04:26:29.165Z,14.77
2023-04-16T04:28:55.819Z,13.77
2023-04-16T04:31:22.468Z,12.85
2023-04-16T04:33:49.100Z,12.95
2023-04-16T04:36:16.087Z,13.32
2023-04-16T04:38:42.687Z,11.82
2023-04-16T04:41:09.289Z,11.00
2023-04-16T04:43:38.371Z,16.10
2023-04-16T04:46:06.294Z,12.38
2023-04-16T04:48:32.972Z,14.55
2023-04-16T04:51:08.822Z,12.88
2023-04-16T04:53:35.655Z,13.67
2023-04-16T04:56:12.384Z,11.63
2023-04-16T04:58:40.786Z,14.07
2023-04-16T05:01:10.670Z,14.60
2023-04-16T05:03:39.900Z,14.65
2023-04-16T05:06:15.112Z,10.10
2023-04-16T05:12:01.728Z,13.73
2023-04-16T05:14:28.286Z,12.52
2023-04-16T05:16:54.949Z,15.05
2023-04-16T05:19:21.788Z,12.97
2023-04-16T05:21:48.389Z,15.48
2023-04-16T05:24:15.205Z,18.67
2023-04-16T05:26:44.029Z,13.23
2023-04-16T05:29:10.914Z,13.70
2023-04-16T05:31:46.756Z,18.53
2023-04-16T05:34:13.411Z,18.77
2023-04-16T05:36:40.082Z,14.98
2023-04-16T05:39:12.315Z,17.83
2023-04-16T05:41:38.940Z,13.38
2023-04-16T05:44:05.629Z,15.13
2023-04-16T05:46:41.261Z,13.07
2023-04-16T05:49:08.161Z,18.85
2023-04-16T05:51:35.625Z,17.80
2023-04-16T05:54:06.092Z,13.75
2023-04-16T05:56:32.690Z,10.40
2023-04-16T05:58:59.306Z,11.80
2023-04-16T06:01:25.800Z,15.85
2023-04-16T06:03:52.544Z,12.48
2023-04-16T06:06:19.110Z,12.68
2023-04-16T06:08:46.074Z,13.40
2023-04-16T06:11:13.002Z,18.63
2023-04-16T06:13:39.865Z,14.15
2023-04-16T06:16:06.763Z,14.68
2023-04-16T06:18:33.390Z,20.02
2023-04-16T06:21:00.390Z,17.80
2023-04-16T06:23:27.491Z,13.40
2023-04-16T06:25:54.411Z,15.73
2023-04-16T06:28:21.049Z,17.02
2023-04-16T06:30:47.820Z,14.85
2023-04-16T06:33:14.535Z,13.87
2023-04-16T06:35:41.289Z,18.23
2023-04-16T06:38:07.939Z,17.73
2023-04-16T06:40:34.681Z,18.90
2023-04-16T06:45:46.722Z,16.37
2023-04-16T06:48:13.398Z,17.45
2023-04-16T06:50:45.984Z,11.90
2023-04-16T06:53:12.688Z,15.90
2023-04-16T06:55:39.295Z,14.32
2023-04-16T06:58:17.509Z,14.30
2023-04-16T07:00:44.219Z,18.08
2023-04-16T07:03:20.013Z,14.63
2023-04-16T07:05:46.873Z,18.88
2023-04-16T07:08:13.587Z,14.40
2023-04-16T07:10:40.288Z,15.63
2023-04-16T07:13:06.869Z,16.98
2023-04-16T07:15:33.444Z,15.80
2023-04-16T07:18:02.776Z,15.45
2023-04-16T07:20:29.446Z,16.23
2023-04-16T07:22:56.126Z,15.37
2023-04-16T07:25:22.859Z,17.60
2023-04-16T07:27:49.527Z,17.95
2023-04-16T07:30:16.230Z,20.20
2023-04-16T07:32:43.021Z,14.23
2023-04-16T07:35:10.841Z,13.60
2023-04-16T07:37:38.497Z,16.35
2023-04-16T07:40:11.867Z,15.40
2023-04-16T07:42:39.529Z,15.55
2023-04-16T07:45:06.744Z,15.18
2023-04-16T07:47:33.465Z,13.20
2023-04-16T07:50:00.021Z,9.60
2023-04-16T07:52:26.871Z,16.40
2023-04-16T07:54:53.662Z,31.48
2023-04-16T07:57:21.269Z,16.55
2023-04-16T07:59:47.914Z,14.47
2023-04-16T08:02:16.768Z,24.85
2023-04-16T08:04:44.640Z,12.18
2023-04-16T08:07:21.885Z,16.25
2023-04-16T08:09:51.110Z,11.70
2023-04-16T08:12:21.290Z,12.57
2023-04-16T08:14:58.917Z,12.70
2023-04-16T08:17:25.428Z,8.80
2023-04-16T08:19:51.954Z,12.07
2023-04-16T08:22:18.928Z,12.23
2023-04-16T08:24:45.683Z,9.60
2023-04-16T08:27:19.454Z,9.70
2023-04-16T08:29:59.363Z,9.40
2023-04-16T08:32:27.454Z,8.48
2023-04-16T08:34:54.293Z,9.68
2023-04-16T08:37:20.933Z,7.97
2023-04-16T08:39:47.574Z,10.80
2023-04-16T08:42:24.076Z,9.32
2023-04-16T08:44:55.767Z,7.93
2023-04-16T08:47:25.597Z,7.55
2023-04-16T08:49:56.871Z,19.77
2023-04-16T08:52:31.931Z,8.93
2023-04-16T08:55:14.075Z,6.40
2023-04-16T08:57:59.734Z,6.22
2023-04-16T09:00:27.489Z,5.43
2023-04-16T09:03:07.203Z,5.57
2023-04-16T09:05:34.877Z,6.25
2023-04-16T09:08:01.612Z,8.13
2023-04-16T09:10:28.551Z,5.90
2023-04-16T09:12:57.297Z,6.10
2023-04-16T09:15:25.719Z,9.00
2023-04-16T09:17:53.154Z,5.55
2023-04-16T09:20:20.491Z,5.57
2023-04-16T09:22:47.198Z,5.03
2023-04-16T09:25:15.274Z,4.32
2023-04-16T09:27:42.622Z,8.03
2023-04-16T09:30:26.439Z,7.45
2023-04-16T09:33:12.857Z,4.32
2023-04-16T09:36:05.616Z,6.97
2023-04-16T09:39:03.957Z,5.13
2023-04-16T09:41:55.447Z,7.90
2023-04-16T09:45:00.924Z,12.52
2023-04-16T09:47:29.641Z,8.35
2023-04-16T09:49:59.150Z,8.18
2023-04-16T09:52:25.931Z,5.95
2023-04-16T09:54:54.012Z,7.27
2023-04-16T09:57:22.202Z,7.75
2023-04-16T09:59:59.067Z,6.35
2023-04-16T10:02:27.800Z,7.85
2023-04-16T10:04:54.921Z,9.10
2023-04-16T10:07:21.872Z,8.37
2023-04-16T10:09:49.414Z,8.40
2023-04-16T10:12:17.173Z,8.25
2023-04-16T10:14:44.133Z,7.47
2023-04-16T10:17:11.089Z,10.93
2023-04-16T10:19:37.996Z,8.97
2023-04-16T10:22:05.284Z,11.98
2023-04-16T10:24:34.078Z,10.73
2023-04-16T10:27:00.947Z,15.13
2023-04-16T10:29:29.463Z,10.68
2023-04-16T10:31:56.804Z,11.80
2023-04-16T10:34:29.046Z,16.92
2023-04-16T10:36:57.001Z,13.15
2023-04-16T10:39:27.388Z,11.70
2023-04-16T10:42:10.637Z,12.48
2023-04-16T10:44:37.618Z,10.73
2023-04-16T10:47:11.238Z,12.00
2023-04-16T10:49:37.811Z,12.05
2023-04-16T10:52:11.457Z,12.25
2023-04-16T10:54:38.899Z,15.27
2023-04-16T10:57:09.514Z,15.17
2023-04-16T10:59:43.140Z,17.45
2023-04-16T11:02:14.867Z,12.90
2023-04-16T11:04:45.042Z,18.13
2023-04-16T11:07:13.822Z,14.10
2023-04-16T11:09:47.672Z,12.63
2023-04-16T11:12:16.677Z,14.23
2023-04-16T11:14:43.559Z,14.98
2023-04-16T11:17:10.290Z,10.65
2023-04-16T11:19:39.810Z,10.77
2023-04-16T11:22:06.408Z,11.57
2023-04-16T11:24:33.396Z,9.95
2023-04-16T11:27:01.593Z,12.30
2023-04-16T11:29:28.119Z,13.20
2023-04-16T11:31:55.609Z,14.13
2023-04-16T11:34:22.363Z,12.63
2023-04-16T11:36:51.471Z,12.65
2023-04-16T11:39:19.181Z,12.07
2023-04-16T11:41:49.629Z,12.23
2023-04-16T11:44:22.546Z,13.00
2023-04-16T11:46:50.362Z,10.37
2023-04-16T11:49:17.492Z,12.93
2023-04-16T11:51:45.597Z,12.20
2023-04-16T11:54:21.921Z,12.50
2023-04-16T11:56:50.685Z,12.57
2023-04-16T11:59:19.439Z,11.07
2023-04-16T12:01:49.992Z,16.23
2023-04-16T12:04:19.589Z,16.50
2023-04-16T12:07:06.851Z,13.70
2023-04-16T12:09:37.147Z,12.48
2023-04-16T12:12:06.404Z,15.23
2023-04-16T12:14:32.933Z,14.02
2023-04-16T12:17:21.371Z,11.27
2023-04-16T12:19:49.668Z,12.43
2023-04-16T12:22:16.294Z,14.25
2023-04-16T12:24:42.888Z,11.20
2023-04-16T12:27:10.060Z,12.18
2023-04-16T12:29:38.722Z,12.30
2023-04-16T12:32:05.226Z,14.85
2023-04-16T12:34:48.446Z,10.75
2023-04-16T12:37:16.035Z,9.97
2023-04-16T12:39:42.821Z,11.55
2023-04-16T12:42:11.335Z,11.52
2023-04-16T12:44:38.098Z,8.90
2023-04-16T12:47:05.642Z,12.40
2023-04-16T12:49:32.486Z,12.07
2023-04-16T12:51:59.151Z,10.38
2023-04-16T12:54:28.962Z,10.75
2023-04-16T12:56:55.540Z,9.18
2023-04-16T12:59:22.042Z,13.13
2023-04-16T13:01:48.681Z,15.60
2023-04-16T13:04:15.916Z,12.32
2023-04-16T13:06:42.631Z,14.93
2023-04-16T13:09:09.438Z,15.32
2023-04-16T13:11:36.520Z,15.63
2023-04-16T13:14:03.378Z,15.27
2023-04-16T13:16:29.985Z,15.63
2023-04-16T13:18:57.628Z,18.45
2023-04-16T13:21:24.253Z,14.10
2023-04-16T13:23:50.985Z,14.65
2023-04-16T13:26:17.656Z,16.83
2023-04-16T13:28:44.184Z,16.23
2023-04-16T13:31:10.740Z,14.13
2023-04-16T13:33:37.977Z,18.38
2023-04-16T13:36:04.986Z,16.27
2023-04-16T13:38:31.572Z,16.20
2023-04-16T13:40:58.156Z,15.85
2023-04-16T13:43:25.749Z,17.77
2023-04-16T13:45:52.295Z,17.05
2023-04-16T13:48:18.974Z,16.15
2023-04-16T13:50:45.571Z,15.10
2023-04-16T13:53:12.058Z,13.85
2023-04-16T13:55:40.997Z,14.98
2023-04-16T13:58:07.689Z,13.63
2023-04-16T14:00:34.397Z,12.55
2023-04-16T14:03:01.449Z,13.70
2023-04-16T14:05:28.144Z,13.52
2023-04-16T14:07:54.843Z,14.80
2023-04-16T14:10:21.704Z,11.93
2023-04-16T14:12:48.520Z,13.38
2023-04-16T14:15:15.316Z,12.63
2023-04-16T14:17:43.570Z,15.38
2023-04-16T14:20:32.993Z,12.88
2023-04-16T14:22:59.632Z,12.05
2023-04-16T14:25:26.410Z,10.70
2023-04-16T14:27:53.240Z,13.77
2023-04-16T14:33:00.658Z,14.38
2023-04-16T14:35:27.524Z,12.68
2023-04-16T14:37:54.271Z,12.05
2023-04-16T14:40:25.978Z,12.27
2023-04-16T14:42:52.770Z,11.27
2023-04-16T14:45:19.411Z,11.85
2023-04-16T14:47:47.824Z,15.77
2023-04-16T14:50:15.702Z,15.43
2023-04-16T14:52:49.268Z,12.23
2023-04-16T14:55:15.958Z,11.18
2023-04-16T14:57:42.769Z,12.20
2023-04-16T15:00:10.837Z,10.88
2023-04-16T15:02:37.956Z,10.13
2023-04-16T15:05:05.055Z,12.13
2023-04-16T15:07:31.864Z,12.00
2023-04-16T15:09:59.289Z,11.82
2023-04-16T15:12:35.204Z,10.98
2023-04-16T15:15:01.783Z,12.73
2023-04-16T15:17:28.453Z,14.97
2023-04-16T15:19:57.439Z,13.73
2023-04-16T15:22:24.237Z,10.73
2023-04-16T15:31:55.088Z,11.37
2023-04-16T15:34:30.496Z,12.05
2023-04-16T15:36:59.430Z,10.68
2023-04-16T15:40:26.030Z,12.63
2023-04-16T15:42:55.973Z,11.00
2023-04-16T15:48:05.468Z,12.43
2023-04-16T15:50:32.708Z,14.50
2023-04-16T15:53:40.941Z,12.38
2023-04-16T15:56:41.187Z,13.48
2023-04-16T15:59:09.608Z,11.30
2023-04-16T16:04:23.804Z,13.27
2023-04-16T16:08:39.342Z,16.70
2023-04-16T16:10:37.116Z,15.15
2023-04-16T16:15:51.867Z,15.23
2023-04-16T16:18:18.686Z,14.35
2023-04-16T16:27:00.288Z,14.70
2023-04-16T16:29:27.326Z,15.65
2023-04-16T16:32:21.568Z,21.00
2023-04-16T16:34:57.842Z,15.75
2023-04-16T16:40:11.738Z,17.00
2023-04-16T16:43:08.360Z,15.48
2023-04-16T16:45:37.800Z,17.20
2023-04-16T16:54:22.618Z,16.10
2023-04-16T16:56:49.568Z,14.48
2023-04-16T17:02:22.165Z,15.70
2023-04-16T17:07:48.478Z,16.13
2023-04-16T17:10:20.821Z,16.73
2023-04-16T17:12:55.053Z,17.55
2023-04-16T17:15:22.901Z,16.63
2023-04-16T17:17:49.778Z,15.38
2023-04-16T17:20:16.599Z,15.70
2023-04-16T17:22:43.457Z,13.85
2023-04-16T17:25:10.675Z,14.98
2023-04-16T17:27:37.366Z,14.68
2023-04-16T17:30:05.584Z,16.10
2023-04-16T17:32:33.112Z,14.70
2023-04-16T17:35:01.223Z,15.23
2023-04-16T17:37:30.368Z,12.50
2023-04-16T17:40:07.623Z,16.33
2023-04-16T17:42:35.404Z,14.45
2023-04-16T17:45:02.827Z,16.93
2023-04-16T17:47:29.678Z,17.40
2023-04-16T17:50:00.467Z,17.02
2023-04-16T17:52:30.379Z,13.05
2023-04-16T17:57:42.814Z,15.10
2023-04-16T18:00:11.340Z,14.80
2023-04-16T18:02:41.174Z,13.98
2023-04-16T18:05:26.758Z,16.58
2023-04-16T18:07:53.525Z,13.63
2023-04-16T18:10:20.523Z,17.70
2023-04-16T18:12:47.208Z,15.32
2023-04-16T18:15:13.932Z,18.25
2023-04-16T18:17:44.889Z,18.50
2023-04-16T18:20:12.643Z,21.30
2023-04-16T18:22:39.416Z,19.53
2023-04-16T18:25:06.813Z,20.55
2023-04-16T18:27:56.055Z,15.02
2023-04-16T18:30:26.341Z,17.73
2023-04-16T18:33:48.835Z,20.42
2023-04-16T18:36:10.224Z,16.80
2023-04-16T18:45:00.694Z,19.67
2023-04-16T18:50:27.147Z,19.53
2023-04-16T18:52:55.357Z,21.60
2023-04-16T18:55:22.093Z,19.45
2023-04-16T19:01:13.187Z,20.73
2023-04-16T19:03:40.064Z,22.33
2023-04-16T19:06:06.791Z,19.92
2023-04-16T19:11:15.152Z,19.60
2023-04-16T19:13:44.012Z,21.20
2023-04-16T19:16:12.354Z,19.50
2023-04-16T19:18:39.471Z,21.75
2023-04-16T19:21:25.820Z,20.58
2023-04-16T19:24:12.332Z,18.45
2023-04-16T19:26:39.080Z,17.60
2023-04-16T19:29:05.836Z,21.77
2023-04-16T19:34:38.215Z,22.73
2023-04-16T19:37:12.496Z,18.33
2023-04-16T19:39:39.077Z,21.70
2023-04-16T19:42:13.234Z,19.70
2023-04-16T19:44:39.949Z,17.90
2023-04-16T19:47:06.583Z,17.52
2023-04-16T19:49:34.606Z,20.13
2023-04-16T19:52:02.574Z,20.50
2023-04-16T19:54:29.656Z,19.70
2023-04-16T19:56:58.463Z,17.95
2023-04-16T19:59:30.745Z,19.40
2023-04-16T20:02:10.838Z,22.08
2023-04-16T20:04:44.748Z,26.70
2023-04-16T20:07:11.492Z,23.40
2023-04-16T20:09:38.181Z,23.17
2023-04-16T20:12:13.763Z,21.25
2023-04-16T20:14:41.973Z,25.52
2023-04-16T20:17:21.001Z,24.42
2023-04-16T20:19:49.689Z,21.20
2023-04-16T20:22:18.288Z,20.95
2023-04-16T20:24:49.660Z,21.70
2023-04-16T20:27:17.052Z,23.00
2023-04-16T20:29:43.784Z,20.55
2023-04-16T20:32:10.516Z,23.27
2023-04-16T20:34:40.176Z,21.40
2023-04-16T20:37:06.883Z,21.50
2023-04-16T20:39:36.185Z,23.25
2023-04-16T20:42:15.466Z,20.95
2023-04-16T20:44:42.360Z,25.37
2023-04-16T20:47:10.290Z,22.75
2023-04-16T20:49:38.579Z,23.25
2023-04-16T20:52:07.418Z,26.73
2023-04-16T20:54:34.182Z,22.00
2023-04-16T20:57:02.715Z,30.30
2023-04-16T20:59:31.324Z,25.20
2023-04-16T21:01:58.350Z,25.27
2023-04-16T21:04:25.172Z,26.42
2023-04-16T21:06:53.892Z,23.90
2023-04-16T21:09:21.182Z,28.43
2023-04-16T21:11:48.283Z,27.33
2023-04-16T21:14:18.535Z,26.60
2023-04-16T21:16:45.239Z,27.35
2023-04-16T21:19:12.090Z,26.83
2023-04-16T21:21:40.039Z,27.00
2023-04-16T21:24:07.173Z,24.15
2023-04-16T21:26:39.258Z,25.90
2023-04-16T21:29:05.974Z,24.48
2023-04-16T21:31:32.770Z,22.35
2023-04-16T21:33:59.509Z,19.63
2023-04-16T21:36:27.695Z,21.85
2023-04-16T21:39:21.810Z,21.02
2023-04-16T21:41:48.565Z,23.88
2023-04-16T21:44:27.735Z,20.52
2023-04-16T21:46:54.401Z,18.57
2023-04-16T21:49:21.284Z,24.70
2023-04-16T21:51:47.922Z,19.17
2023-04-16T21:54:17.864Z,22.27
2023-04-16T21:56:47.860Z,16.10
2023-04-16T21:59:14.436Z,20.10
2023-04-16T22:01:41.146Z,21.63
2023-04-16T22:04:09.890Z,21.63
2023-04-16T22:06:36.646Z,24.58
2023-04-16T22:09:03.623Z,21.45
2023-04-16T22:14:15.576Z,25.60
2023-04-16T22:16:42.214Z,21.73
2023-04-16T22:19:08.899Z,23.33
2023-04-16T22:21:46.375Z,24.35
2023-04-16T22:24:13.023Z,26.00
2023-04-16T22:26:53.076Z,22.02
2023-04-16T22:29:19.755Z,23.48
2023-04-16T22:31:48.630Z,23.15
2023-04-16T22:34:24.789Z,22.27
2023-04-16T22:37:04.650Z,27.50
2023-04-16T22:39:31.746Z,23.80
2023-04-16T22:41:58.325Z,24.48
2023-04-16T22:44:25.177Z,23.85
2023-04-16T22:46:51.989Z,31.13
2023-04-16T22:49:18.676Z,26.43
2023-04-16T22:51:45.359Z,23.33
2023-04-16T22:54:13.994Z,26.40
2023-04-16T22:56:43.601Z,30.15
2023-04-16T22:59:10.519Z,30.33
2023-04-16T23:01:40.685Z,29.07
2023-04-16T23:04:07.453Z,24.42
2023-04-16T23:06:34.128Z,28.00
2023-04-16T23:09:05.292Z,30.55
2023-04-16T23:11:31.937Z,29.38
2023-04-16T23:13:59.901Z,23.90
2023-04-16T23:16:27.373Z,28.48
2023-04-16T23:18:58.633Z,26.17
2023-04-16T23:21:26.023Z,25.70
2023-04-16T23:23:52.721Z,23.65
2023-04-16T23:26:19.326Z,29.80
2023-04-16T23:28:46.802Z,26.90
2023-04-16T23:31:13.652Z,26.60
2023-04-16T23:33:40.288Z,29.13
2023-04-16T23:36:07.478Z,26.75
2023-04-16T23:38:34.479Z,26.40
2023-04-16T23:41:01.107Z,29.02
2023-04-16T23:43:27.793Z,28.63
2023-04-16T23:45:54.561Z,30.38
2023-04-16T23:48:21.280Z,27.70
2023-04-16T23:50:47.917Z,29.00
2023-04-16T23:53:14.584Z,26.95
2023-04-16T23:55:41.166Z,28.30
2023-04-16T23:58:07.864Z,30.05
